Time;durP1;ratioP1;P1;durP2;ratioP2;P2;SDS_P1;SDS_P2;PMS_P1;PMS_P2;Temp;Humidity;BMP_temperature;BMP_pressure;BME280_temperature;BME280_humidity;BME280_pressure;Samples;Min_cycle;Max_cycle;Signal;HPM_P1;HPM_P2
2022/06/24 00:00:10;;;;;;;;;;;21.60;63.00;;;;;;5066739;28;1922;-76
2022/06/24 00:02:35;;;;;;;;;;;21.60;63.00;;;;;;5064981;28;1325;-76
2022/06/24 00:05:03;;;;;;;;;;;21.60;63.00;;;;;;5072630;28;1078;-77
2022/06/24 00:07:28;;;;;;;;;;;21.60;63.00;;;;;;5070776;28;1352;-75
2022/06/24 00:09:54;;;;;;;;;;;21.60;63.00;;;;;;5070499;28;1182;-76
2022/06/24 00:12:20;;;;;;;;;;;21.60;63.00;;;;;;5065089;28;1193;-75
2022/06/24 00:14:55;;;;;;;;;;;21.60;63.00;;;;;;5063764;28;1126;-76
2022/06/24 00:17:20;;;;;;;;;;;21.60;63.00;;;;;;5057620;28;1363;-76
2022/06/24 00:19:53;;;;;;;;;;;21.60;63.00;;;;;;5064939;28;1906;-75
2022/06/24 00:22:18;;;;;;;;;;;21.60;63.00;;;;;;5060699;28;1146;-76
2022/06/24 00:24:44;;;;;;;;;;;21.60;63.10;;;;;;5057544;28;1555;-75
2022/06/24 00:27:17;;;;;;;;;;;21.60;63.10;;;;;;5043917;28;1216;-76
2022/06/24 00:29:42;;;;;;;;;;;21.60;63.10;;;;;;5064917;28;1252;-75
2022/06/24 00:32:08;;;;;;;;;;;21.60;63.10;;;;;;5069868;28;1127;-75
2022/06/24 00:34:33;;;;;;;;;;;21.60;63.10;;;;;;5054563;28;1935;-74
2022/06/24 00:37:19;;;;;;;;;;;21.60;63.10;;;;;;5070096;28;1306;-76
2022/06/24 00:39:44;;;;;;;;;;;21.60;63.10;;;;;;5065180;28;1957;-74
2022/06/24 00:42:10;;;;;;;;;;;21.60;63.20;;;;;;5069042;28;1142;-75
2022/06/24 00:44:44;;;;;;;;;;;21.60;63.10;;;;;;5064240;28;1339;-74
2022/06/24 00:47:10;;;;;;;;;;;21.60;63.20;;;;;;5070361;28;1239;-74
2022/06/24 00:49:35;;;;;;;;;;;21.60;63.10;;;;;;5067613;28;1403;-76
2022/06/24 00:52:07;;;;;;;;;;;21.60;63.20;;;;;;5072008;28;1926;-75
2022/06/24 00:54:33;;;;;;;;;;;21.60;63.20;;;;;;5068039;28;1052;-76
2022/06/24 00:56:58;;;;;;;;;;;21.60;63.20;;;;;;5066021;28;1247;-74
2022/06/24 00:59:23;;;;;;;;;;;21.60;63.20;;;;;;5063080;28;1910;-74
2022/06/24 01:01:49;;;;;;;;;;;21.60;63.20;;;;;;5067394;28;1396;-73
2022/06/24 01:04:15;;;;;;;;;;;21.60;63.20;;;;;;5067276;28;1235;-74
2022/06/24 01:06:41;;;;;;;;;;;21.60;63.30;;;;;;5070395;28;1218;-74
2022/06/24 01:09:07;;;;;;;;;;;21.60;63.30;;;;;;5061093;28;1267;-74
2022/06/24 01:11:34;;;;;;;;;;;21.60;63.30;;;;;;5068359;28;1167;-77
2022/06/24 01:13:59;;;;;;;;;;;21.60;63.40;;;;;;5073708;28;1147;-74
2022/06/24 01:16:25;;;;;;;;;;;21.60;63.30;;;;;;5066063;28;1079;-74
2022/06/24 01:18:54;;;;;;;;;;;21.60;63.30;;;;;;5061883;28;1947;-73
2022/06/24 01:21:38;;;;;;;;;;;21.60;63.30;;;;;;5065711;28;1059;-75
2022/06/24 01:24:03;;;;;;;;;;;21.60;63.30;;;;;;5069707;28;1193;-76
2022/06/24 01:26:29;;;;;;;;;;;21.60;63.40;;;;;;5074730;28;1245;-76
2022/06/24 01:28:54;;;;;;;;;;;21.60;63.40;;;;;;5073069;28;1275;-76
2022/06/24 01:31:20;;;;;;;;;;;21.60;63.40;;;;;;5073238;28;1070;-75
2022/06/24 01:33:45;;;;;;;;;;;21.60;63.40;;;;;;5060689;28;1136;-74
2022/06/24 01:36:11;;;;;;;;;;;21.60;63.50;;;;;;5072999;28;1217;-75
2022/06/24 01:38:36;;;;;;;;;;;21.60;63.40;;;;;;5073403;28;1902;-74
2022/06/24 01:41:01;;;;;;;;;;;21.60;63.50;;;;;;5074428;28;1309;-74
2022/06/24 01:43:27;;;;;;;;;;;21.60;63.50;;;;;;5073080;28;1247;-75
2022/06/24 01:45:52;;;;;;;;;;;21.60;63.50;;;;;;5073995;28;1086;-74
2022/06/24 01:48:18;;;;;;;;;;;21.60;63.50;;;;;;5042426;28;1201;-75
2022/06/24 01:50:43;;;;;;;;;;;21.60;63.50;;;;;;5073545;28;839;-75
2022/06/24 01:53:09;;;;;;;;;;;21.60;63.50;;;;;;5072574;28;1325;-74
2022/06/24 01:55:34;;;;;;;;;;;21.60;63.50;;;;;;5072561;28;1083;-74
2022/06/24 01:57:59;;;;;;;;;;;21.60;63.60;;;;;;5073054;28;1349;-74
2022/06/24 02:00:26;;;;;;;;;;;21.60;63.60;;;;;;5073548;28;1914;-74
2022/06/24 02:02:51;;;;;;;;;;;21.60;63.60;;;;;;5073613;28;1449;-74
2022/06/24 02:05:16;;;;;;;;;;;21.60;63.60;;;;;;5055545;28;1208;-74
2022/06/24 02:07:42;;;;;;;;;;;21.60;63.60;;;;;;5059032;28;1231;-74
2022/06/24 02:15:36;;;;;;;;;;;21.60;63.70;;;;;;5065917;28;1075;-73
2022/06/24 02:18:01;;;;;;;;;;;21.60;63.60;;;;;;5060076;28;1240;-73
2022/06/24 02:20:27;;;;;;;;;;;21.50;63.60;;;;;;5070861;28;1902;-73
2022/06/24 02:22:52;;;;;;;;;;;21.60;63.70;;;;;;5061649;28;1047;-75
2022/06/24 02:25:18;;;;;;;;;;;21.60;63.70;;;;;;5060046;28;1097;-75
2022/06/24 02:27:44;;;;;;;;;;;21.60;63.70;;;;;;5072216;28;1195;-74
2022/06/24 02:30:10;;;;;;;;;;;21.60;63.70;;;;;;5059585;28;1082;-75
2022/06/24 02:32:35;;;;;;;;;;;21.60;63.70;;;;;;5064307;28;1146;-73
2022/06/24 02:35:01;;;;;;;;;;;21.60;63.70;;;;;;5067574;28;976;-73
2022/06/24 02:37:26;;;;;;;;;;;21.60;63.70;;;;;;5064397;28;1283;-72
2022/06/24 02:39:52;;;;;;;;;;;21.60;63.80;;;;;;5067020;28;1961;-75
2022/06/24 02:42:18;;;;;;;;;;;21.60;63.80;;;;;;5073437;28;1062;-76
2022/06/24 02:44:43;;;;;;;;;;;21.60;63.80;;;;;;5073700;28;1330;-76
2022/06/24 02:47:09;;;;;;;;;;;21.60;63.70;;;;;;5055565;28;1299;-76
2022/06/24 02:49:34;;;;;;;;;;;21.60;63.80;;;;;;5073788;28;1506;-74
2022/06/24 02:51:59;;;;;;;;;;;21.60;63.80;;;;;;5072847;28;1126;-75
2022/06/24 02:54:25;;;;;;;;;;;21.60;63.80;;;;;;5072954;28;1137;-76
2022/06/24 02:56:50;;;;;;;;;;;21.60;63.80;;;;;;5072176;28;1336;-76
2022/06/24 02:59:16;;;;;;;;;;;21.50;63.70;;;;;;5071562;28;1914;-76
2022/06/24 03:01:41;;;;;;;;;;;21.60;63.90;;;;;;5070777;28;1336;-75
2022/06/24 03:04:07;;;;;;;;;;;21.50;63.80;;;;;;5071824;28;1039;-73
2022/06/24 03:06:32;;;;;;;;;;;21.60;63.80;;;;;;5058037;28;1142;-73
2022/06/24 03:08:57;;;;;;;;;;;21.60;63.90;;;;;;5059139;28;1426;-73
2022/06/24 03:11:23;;;;;;;;;;;21.60;63.90;;;;;;5071488;28;1185;-72
2022/06/24 03:13:48;;;;;;;;;;;21.60;63.90;;;;;;5059630;28;1126;-72
2022/06/24 03:16:14;;;;;;;;;;;21.60;63.90;;;;;;5066011;28;1083;-73
2022/06/24 03:18:39;;;;;;;;;;;21.60;63.90;;;;;;5058133;28;1893;-72
2022/06/24 03:21:07;;;;;;;;;;;21.50;63.80;;;;;;5069755;28;1119;-73
2022/06/24 03:23:33;;;;;;;;;;;21.60;63.90;;;;;;5071501;28;1282;-73
2022/06/24 03:26:01;;;;;;;;;;;21.60;63.90;;;;;;5051328;28;1367;-74
2022/06/24 03:28:26;;;;;;;;;;;21.60;64.00;;;;;;5065039;28;1367;-73
2022/06/24 03:30:52;;;;;;;;;;;21.60;63.90;;;;;;5059107;28;1121;-74
2022/06/24 03:33:17;;;;;;;;;;;21.60;64.00;;;;;;5061310;28;1097;-74
2022/06/24 03:35:43;;;;;;;;;;;21.60;64.00;;;;;;5064954;28;1135;-75
2022/06/24 03:38:08;;;;;;;;;;;21.50;63.90;;;;;;5062847;28;1273;-74
2022/06/24 03:40:33;;;;;;;;;;;21.60;64.00;;;;;;5070787;28;1891;-74
2022/06/24 03:42:59;;;;;;;;;;;21.60;64.00;;;;;;5072431;28;1265;-74
2022/06/24 03:45:24;;;;;;;;;;;21.50;63.90;;;;;;5072113;28;1070;-75
2022/06/24 03:47:50;;;;;;;;;;;21.60;64.10;;;;;;5072355;28;1275;-75
2022/06/24 03:50:16;;;;;;;;;;;21.60;64.10;;;;;;5054064;28;1194;-76
2022/06/24 03:52:41;;;;;;;;;;;21.60;64.10;;;;;;5054599;28;1186;-76
2022/06/24 03:55:07;;;;;;;;;;;21.60;64.10;;;;;;5058653;28;1162;-76
2022/06/24 03:57:32;;;;;;;;;;;21.60;64.10;;;;;;5076022;28;1157;-75
2022/06/24 03:59:58;;;;;;;;;;;21.60;64.10;;;;;;5085544;28;1902;-75
2022/06/24 04:02:23;;;;;;;;;;;21.50;64.00;;;;;;5066757;28;1372;-76
2022/06/24 04:04:49;;;;;;;;;;;21.50;64.00;;;;;;5075913;28;1126;-75
2022/06/24 04:07:14;;;;;;;;;;;21.60;64.10;;;;;;5063476;28;1153;-75
2022/06/24 04:09:40;;;;;;;;;;;21.60;64.10;;;;;;5068070;28;1282;-75
2022/06/24 04:12:05;;;;;;;;;;;21.60;64.20;;;;;;5067338;28;1130;-74
2022/06/24 04:17:14;;;;;;;;;;;21.50;64.10;;;;;;5074983;28;1103;-76
2022/06/24 04:19:40;;;;;;;;;;;21.60;64.20;;;;;;5068777;28;1901;-76
2022/06/24 04:22:05;;;;;;;;;;;21.50;64.10;;;;;;5057656;28;1226;-75
2022/06/24 04:24:31;;;;;;;;;;;21.50;64.10;;;;;;5074531;28;1253;-76
2022/06/24 04:26:56;;;;;;;;;;;21.50;64.20;;;;;;5075462;28;1145;-76
2022/06/24 04:29:22;;;;;;;;;;;21.50;64.10;;;;;;5075397;28;1300;-76
2022/06/24 04:31:47;;;;;;;;;;;21.60;64.20;;;;;;5057310;28;1300;-76
2022/06/24 04:34:13;;;;;;;;;;;21.50;64.10;;;;;;5075526;28;1138;-76
2022/06/24 04:36:38;;;;;;;;;;;21.50;64.10;;;;;;5066326;28;1837;-70
2022/06/24 04:39:04;;;;;;;;;;;21.50;64.20;;;;;;5074117;28;1957;-70
2022/06/24 04:41:29;;;;;;;;;;;21.60;64.20;;;;;;5055820;28;1345;-69
2022/06/24 04:43:54;;;;;;;;;;;21.50;64.20;;;;;;5074605;28;1294;-70
2022/06/24 04:46:21;;;;;;;;;;;21.50;64.20;;;;;;5073939;28;1296;-73
2022/06/24 04:48:46;;;;;;;;;;;21.50;64.20;;;;;;5073803;28;1341;-70
2022/06/24 04:51:12;;;;;;;;;;;21.50;64.20;;;;;;5073676;28;1436;-69
2022/06/24 04:53:37;;;;;;;;;;;21.50;64.20;;;;;;5075062;28;1338;-75
2022/06/24 04:56:03;;;;;;;;;;;21.50;64.20;;;;;;5074309;28;1360;-72
2022/06/24 04:58:28;;;;;;;;;;;21.60;64.20;;;;;;5075141;28;1294;-71
2022/06/24 05:00:54;;;;;;;;;;;21.60;64.20;;;;;;5074541;28;1972;-72
2022/06/24 05:03:19;;;;;;;;;;;21.60;64.20;;;;;;5073698;28;1700;-72
2022/06/24 05:05:44;;;;;;;;;;;21.50;64.30;;;;;;5073514;28;1353;-71
2022/06/24 05:08:10;;;;;;;;;;;21.50;64.30;;;;;;5073633;28;1294;-73
2022/06/24 05:10:35;;;;;;;;;;;21.50;64.40;;;;;;5074452;28;1300;-72
2022/06/24 05:13:01;;;;;;;;;;;21.50;64.50;;;;;;5074478;28;1233;-71
2022/06/24 05:15:26;;;;;;;;;;;21.50;64.70;;;;;;5074766;28;1347;-75
2022/06/24 05:17:52;;;;;;;;;;;21.50;64.70;;;;;;5073311;28;1349;-70
2022/06/24 05:20:17;;;;;;;;;;;21.50;64.70;;;;;;5068824;28;1957;-72
2022/06/24 05:22:43;;;;;;;;;;;21.50;65.50;;;;;;5074366;28;1450;-74
2022/06/24 05:25:08;;;;;;;;;;;21.50;64.80;;;;;;5074769;28;1345;-76
2022/06/24 05:27:34;;;;;;;;;;;21.50;64.80;;;;;;5072810;28;1664;-74
2022/06/24 05:29:59;;;;;;;;;;;21.50;64.90;;;;;;5072947;28;1304;-76
2022/06/24 05:32:25;;;;;;;;;;;21.50;64.90;;;;;;5043159;28;1252;-74
2022/06/24 05:34:50;;;;;;;;;;;21.50;64.90;;;;;;5074378;28;1074;-73
2022/06/24 05:37:16;;;;;;;;;;;21.50;64.90;;;;;;5059741;28;1102;-72
2022/06/24 05:39:41;;;;;;;;;;;21.50;64.90;;;;;;5074102;28;1960;-74
2022/06/24 05:42:06;;;;;;;;;;;21.50;64.90;;;;;;5073613;28;1061;-74
2022/06/24 05:44:32;;;;;;;;;;;21.50;64.90;;;;;;5073228;28;1362;-71
2022/06/24 05:46:57;;;;;;;;;;;21.50;65.00;;;;;;5074069;28;964;-73
2022/06/24 05:49:23;;;;;;;;;;;21.50;65.00;;;;;;5062394;28;1198;-75
2022/06/24 05:51:48;;;;;;;;;;;21.50;64.90;;;;;;5072075;28;1341;-75
2022/06/24 05:56:58;;;;;;;;;;;21.50;65.00;;;;;;5061022;28;981;-71
2022/06/24 05:59:24;;;;;;;;;;;21.50;65.00;;;;;;5072791;28;2343;-71
2022/06/24 06:01:49;;;;;;;;;;;21.50;65.00;;;;;;5061051;28;1432;-75
2022/06/24 06:04:15;;;;;;;;;;;21.50;64.90;;;;;;5072442;28;1158;-71
2022/06/24 06:06:40;;;;;;;;;;;21.50;64.90;;;;;;5068986;28;1235;-75
2022/06/24 06:09:06;;;;;;;;;;;21.50;64.90;;;;;;5073513;28;1333;-77
2022/06/24 06:11:32;;;;;;;;;;;21.50;64.90;;;;;;5056251;28;1251;-76
2022/06/24 06:13:57;;;;;;;;;;;21.50;64.90;;;;;;5073457;28;1449;-76
2022/06/24 06:16:23;;;;;;;;;;;21.50;64.90;;;;;;5073454;28;1086;-71
2022/06/24 06:18:48;;;;;;;;;;;21.50;65.00;;;;;;5065897;28;1894;-72
2022/06/24 06:21:14;;;;;;;;;;;21.50;65.70;;;;;;5071949;28;1302;-74
2022/06/24 06:23:40;;;;;;;;;;;21.50;65.00;;;;;;5071833;28;1283;-70
2022/06/24 06:26:05;;;;;;;;;;;21.50;65.00;;;;;;5055282;28;1179;-69
2022/06/24 06:28:31;;;;;;;;;;;21.50;65.00;;;;;;5073053;28;1708;-70
2022/06/24 06:30:57;;;;;;;;;;;21.50;65.10;;;;;;5071814;28;1374;-73
2022/06/24 06:33:22;;;;;;;;;;;21.50;65.00;;;;;;5073216;28;1178;-74
2022/06/24 06:35:47;;;;;;;;;;;21.50;65.10;;;;;;5072031;28;1331;-71
2022/06/24 06:38:13;;;;;;;;;;;21.50;65.10;;;;;;5071495;28;1293;-71
2022/06/24 06:40:38;;;;;;;;;;;21.50;65.20;;;;;;5072760;28;1957;-75
2022/06/24 06:43:05;;;;;;;;;;;21.50;65.10;;;;;;5071867;28;1595;-71
2022/06/24 06:45:34;;;;;;;;;;;21.50;65.10;;;;;;5072727;28;1489;-72
2022/06/24 06:48:00;;;;;;;;;;;21.50;65.10;;;;;;5055115;28;1405;-71
2022/06/24 06:50:26;;;;;;;;;;;21.50;65.20;;;;;;5071479;28;1437;-72
2022/06/24 06:52:51;;;;;;;;;;;21.50;65.10;;;;;;5071441;28;1623;-73
2022/06/24 06:55:16;;;;;;;;;;;21.50;65.20;;;;;;5072879;28;1051;-75
2022/06/24 06:57:42;;;;;;;;;;;21.50;65.20;;;;;;5071207;28;1534;-75
2022/06/24 07:00:09;;;;;;;;;;;21.50;65.20;;;;;;5071432;28;1906;-75
2022/06/24 07:02:35;;;;;;;;;;;21.50;65.30;;;;;;5072810;28;1351;-75
2022/06/24 07:05:01;;;;;;;;;;;21.50;65.30;;;;;;5071777;28;1067;-75
2022/06/24 07:07:26;;;;;;;;;;;21.50;65.20;;;;;;5071370;28;1341;-75
2022/06/24 07:09:51;;;;;;;;;;;21.50;65.30;;;;;;5071291;28;1216;-76
2022/06/24 07:12:17;;;;;;;;;;;21.50;65.30;;;;;;5051581;28;1189;-76
2022/06/24 07:14:42;;;;;;;;;;;21.50;65.20;;;;;;5073029;28;1416;-76
2022/06/24 07:17:08;;;;;;;;;;;21.50;65.30;;;;;;5054807;28;1337;-74
2022/06/24 07:19:34;;;;;;;;;;;21.50;65.30;;;;;;5065499;28;1898;-74
2022/06/24 07:21:59;;;;;;;;;;;21.50;65.30;;;;;;5071288;28;1146;-74
2022/06/24 07:24:25;;;;;;;;;;;21.50;65.60;;;;;;5059389;28;1118;-75
2022/06/24 07:26:50;;;;;;;;;;;21.50;66.20;;;;;;5072838;28;1292;-76
2022/06/24 07:29:16;;;;;;;;;;;21.50;65.30;;;;;;5072534;28;1383;-76
2022/06/24 07:31:41;;;;;;;;;;;21.50;65.40;;;;;;5075173;28;1264;-76
2022/06/24 07:34:07;;;;;;;;;;;21.50;65.30;;;;;;5076824;28;1278;-74
2022/06/24 07:36:32;;;;;;;;;;;21.50;65.30;;;;;;5076438;28;1067;-74
2022/06/24 07:38:58;;;;;;;;;;;21.50;65.30;;;;;;5075036;28;1890;-74
2022/06/24 07:41:23;;;;;;;;;;;21.50;65.30;;;;;;5076375;28;1253;-75
2022/06/24 07:43:49;;;;;;;;;;;21.50;65.30;;;;;;5075340;28;1328;-76
2022/06/24 07:46:14;;;;;;;;;;;21.50;65.30;;;;;;5075351;28;1352;-76
2022/06/24 07:48:40;;;;;;;;;;;21.50;65.30;;;;;;5058670;28;1386;-77
2022/06/24 07:51:09;;;;;;;;;;;21.50;65.30;;;;;;5074655;28;1380;-75
2022/06/24 07:53:34;;;;;;;;;;;21.50;65.30;;;;;;5074890;28;1431;-76
2022/06/24 07:58:44;;;;;;;;;;;21.50;65.30;;;;;;5064082;28;1905;-76
2022/06/24 08:01:09;;;;;;;;;;;21.50;65.30;;;;;;5075876;28;1055;-74
2022/06/24 08:03:35;;;;;;;;;;;21.50;65.40;;;;;;5076003;28;1636;-74
2022/06/24 08:06:00;;;;;;;;;;;21.50;65.40;;;;;;5076096;28;1259;-74
2022/06/24 08:08:25;;;;;;;;;;;21.50;65.40;;;;;;5076256;28;1324;-74
2022/06/24 08:10:51;;;;;;;;;;;21.50;65.40;;;;;;5062249;28;1201;-74
2022/06/24 08:13:16;;;;;;;;;;;21.50;65.30;;;;;;5075957;28;1276;-74
2022/06/24 08:15:42;;;;;;;;;;;21.50;65.40;;;;;;5072871;28;1805;-74
2022/06/24 08:18:07;;;;;;;;;;;21.50;65.50;;;;;;5046515;28;1368;-75
2022/06/24 08:20:33;;;;;;;;;;;21.50;65.50;;;;;;5068894;28;1898;-75
2022/06/24 08:22:58;;;;;;;;;;;21.50;65.50;;;;;;5063902;28;1082;-75
2022/06/24 08:25:23;;;;;;;;;;;21.50;65.40;;;;;;5061696;28;1109;-75
2022/06/24 08:27:49;;;;;;;;;;;21.50;65.50;;;;;;5066708;28;1237;-74
2022/06/24 08:30:15;;;;;;;;;;;21.50;65.50;;;;;;5067497;28;1207;-75
2022/06/24 08:32:40;;;;;;;;;;;21.50;65.60;;;;;;5062420;28;999;-75
2022/06/24 08:35:06;;;;;;;;;;;21.50;65.60;;;;;;5072943;28;1153;-75
2022/06/24 08:37:31;;;;;;;;;;;21.50;65.50;;;;;;5075588;28;1042;-75
2022/06/24 08:39:57;;;;;;;;;;;21.50;65.60;;;;;;5061566;28;1950;-75
2022/06/24 08:42:22;;;;;;;;;;;21.50;65.50;;;;;;5067634;28;1082;-75
2022/06/24 08:44:48;;;;;;;;;;;21.50;65.50;;;;;;5067656;28;1000;-75
2022/06/24 08:47:14;;;;;;;;;;;21.50;65.50;;;;;;5062627;28;1054;-75
2022/06/24 08:49:40;;;;;;;;;;;21.50;65.50;;;;;;5088906;23;2040;-69
2022/06/24 08:52:05;;;;;;;;;;;21.50;65.50;;;;;;5072479;28;1890;-69
2022/06/24 08:54:31;;;;;;;;;;;21.50;65.50;;;;;;5049039;28;1015;-68
2022/06/24 08:56:56;;;;;;;;;;;21.50;65.50;;;;;;5067573;28;1146;-68
2022/06/24 08:59:22;;;;;;;;;;;21.50;65.60;;;;;;5073933;28;1973;-68
2022/06/24 09:01:48;;;;;;;;;;;21.50;65.60;;;;;;5075271;28;1344;-69
2022/06/24 09:04:13;;;;;;;;;;;21.50;65.60;;;;;;5057080;28;1354;-70
2022/06/24 09:06:39;;;;;;;;;;;21.50;65.60;;;;;;5057051;28;1068;-69
2022/06/24 09:09:04;;;;;;;;;;;21.50;65.60;;;;;;5057104;28;1454;-69
2022/06/24 09:11:40;;;;;;;;;;;21.50;65.60;;;;;;5056650;28;1306;-69
2022/06/24 09:14:05;;;;;;;;;;;21.50;65.60;;;;;;5074874;28;1118;-69
2022/06/24 09:16:32;;;;;;;;;;;21.50;65.70;;;;;;5074569;28;890;-69
2022/06/24 09:18:59;;;;;;;;;;;21.50;65.60;;;;;;5069536;28;1898;-69
2022/06/24 09:21:29;;;;;;;;;;;21.50;65.80;;;;;;5074508;28;1288;-69
2022/06/24 09:23:55;;;;;;;;;;;21.50;65.60;;;;;;5074732;28;1313;-69
2022/06/24 09:26:26;;;;;;;;;;;21.50;65.60;;;;;;5056695;28;1348;-69
2022/06/24 09:28:53;;;;;;;;;;;21.50;65.60;;;;;;5056630;28;1384;-69
2022/06/24 09:31:19;;;;;;;;;;;21.50;65.60;;;;;;5074312;28;1072;-69
2022/06/24 09:33:45;;;;;;;;;;;21.50;65.60;;;;;;5056848;28;1445;-69
2022/06/24 09:36:11;;;;;;;;;;;21.50;65.70;;;;;;5074919;28;1134;-69
2022/06/24 09:38:55;;;;;;;;;;;21.50;65.60;;;;;;5074413;28;1317;-70
2022/06/24 09:41:20;;;;;;;;;;;21.50;65.70;;;;;;5074571;28;1083;-69
2022/06/24 09:43:46;;;;;;;;;;;21.50;65.80;;;;;;5074449;28;1158;-69
2022/06/24 09:46:18;;;;;;;;;;;21.50;65.70;;;;;;5057008;28;1067;-69
2022/06/24 09:48:44;;;;;;;;;;;21.50;65.80;;;;;;5061194;28;1641;-69
2022/06/24 09:51:09;;;;;;;;;;;21.50;65.80;;;;;;5073834;28;1261;-69
2022/06/24 09:53:36;;;;;;;;;;;21.50;65.80;;;;;;5073267;28;1341;-69
2022/06/24 09:56:02;;;;;;;;;;;21.50;65.80;;;;;;5070392;28;1817;-69
2022/06/24 09:58:27;;;;;;;;;;;21.50;65.80;;;;;;5054793;28;1264;-70
2022/06/24 10:00:53;;;;;;;;;;;21.50;65.70;;;;;;5046923;28;1910;-69
2022/06/24 10:03:19;;;;;;;;;;;21.50;65.80;;;;;;5035705;28;1429;-69
2022/06/24 10:05:47;;;;;;;;;;;21.50;65.70;;;;;;5067142;28;1060;-69
2022/06/24 10:08:15;;;;;;;;;;;21.50;65.80;;;;;;5060594;28;1364;-69
2022/06/24 10:10:58;;;;;;;;;;;21.50;65.70;;;;;;5073448;28;1268;-69
2022/06/24 10:13:32;;;;;;;;;;;21.50;65.70;;;;;;5068965;28;1638;-70
2022/06/24 10:16:01;;;;;;;;;;;21.50;65.90;;;;;;5058439;28;1369;-70
2022/06/24 10:18:34;;;;;;;;;;;21.50;65.90;;;;;;5070537;28;1390;-68
2022/06/24 10:21:00;;;;;;;;;;;21.50;65.90;;;;;;5055411;28;1898;-68
2022/06/24 10:23:42;;;;;;;;;;;21.50;65.80;;;;;;5055600;28;1340;-68
2022/06/24 10:26:08;;;;;;;;;;;21.50;65.80;;;;;;5073738;28;1341;-68
2022/06/24 10:28:36;;;;;;;;;;;21.50;65.80;;;;;;5073629;28;1279;-68
2022/06/24 10:31:01;;;;;;;;;;;21.50;66.00;;;;;;5055384;28;1425;-68
2022/06/24 10:33:27;;;;;;;;;;;21.50;66.50;;;;;;5055496;28;1263;-68
2022/06/24 10:36:03;;;;;;;;;;;21.50;66.70;;;;;;5038790;28;1322;-68
2022/06/24 10:38:35;;;;;;;;;;;21.50;67.10;;;;;;5055602;28;1261;-68
2022/06/24 10:41:01;;;;;;;;;;;21.50;67.40;;;;;;5055037;28;1971;-69
2022/06/24 10:46:09;;;;;;;;;;;21.60;67.20;;;;;;5103820;22;1610;-73
2022/06/24 10:48:43;;;;;;;;;;;21.60;67.40;;;;;;5045225;28;1431;-73
2022/06/24 10:51:18;;;;;;;;;;;21.60;67.20;;;;;;5041918;28;1064;-73
2022/06/24 10:54:02;;;;;;;;;;;21.60;67.10;;;;;;5022971;28;1395;-71
2022/06/24 10:56:38;;;;;;;;;;;21.60;67.10;;;;;;5049836;28;1082;-71
2022/06/24 10:59:03;;;;;;;;;;;21.60;67.10;;;;;;5050380;28;1910;-71
2022/06/24 11:01:29;;;;;;;;;;;21.60;67.20;;;;;;5043678;28;1207;-72
2022/06/24 11:03:54;;;;;;;;;;;21.60;67.20;;;;;;5033064;28;1599;-72
2022/06/24 11:06:20;;;;;;;;;;;21.60;67.20;;;;;;5050690;28;1142;-72
2022/06/24 11:08:45;;;;;;;;;;;21.60;67.40;;;;;;5051976;28;1331;-72
2022/06/24 11:11:24;;;;;;;;;;;21.60;67.50;;;;;;5051901;28;1353;-72
2022/06/24 11:13:50;;;;;;;;;;;21.60;67.50;;;;;;5051436;28;1379;-72
2022/06/24 11:16:15;;;;;;;;;;;21.60;67.60;;;;;;5051634;28;1146;-72
2022/06/24 11:18:42;;;;;;;;;;;21.60;67.60;;;;;;5045509;28;1068;-72
2022/06/24 11:21:08;;;;;;;;;;;21.60;67.60;;;;;;5049759;28;1965;-72
2022/06/24 11:23:34;;;;;;;;;;;21.60;67.60;;;;;;5050555;28;1265;-72
2022/06/24 11:26:02;;;;;;;;;;;21.60;67.70;;;;;;5051171;28;1286;-72
2022/06/24 11:28:28;;;;;;;;;;;21.60;67.70;;;;;;5051629;28;1364;-72
2022/06/24 11:30:54;;;;;;;;;;;21.60;67.70;;;;;;5051327;28;1304;-72
2022/06/24 11:33:19;;;;;;;;;;;21.60;67.70;;;;;;5051728;28;1262;-72
2022/06/24 11:35:45;;;;;;;;;;;21.70;67.90;;;;;;5051293;28;1350;-72
2022/06/24 11:38:11;;;;;;;;;;;21.60;67.60;;;;;;5050512;28;1342;-72
2022/06/24 11:40:36;;;;;;;;;;;21.60;67.30;;;;;;5050089;28;1902;-72
2022/06/24 11:43:05;;;;;;;;;;;21.60;67.20;;;;;;5050417;28;1313;-73
2022/06/24 11:45:35;;;;;;;;;;;21.70;67.40;;;;;;5055250;28;1379;-70
2022/06/24 11:48:00;;;;;;;;;;;21.60;67.20;;;;;;5040749;28;1189;-71
2022/06/24 11:50:26;;;;;;;;;;;21.60;67.10;;;;;;5053574;28;1334;-72
2022/06/24 11:52:51;;;;;;;;;;;21.60;67.10;;;;;;5072487;28;1265;-72
2022/06/24 11:55:26;;;;;;;;;;;21.60;67.00;;;;;;5053861;28;1326;-72
2022/06/24 11:57:53;;;;;;;;;;;21.60;66.90;;;;;;5053807;28;1176;-72
2022/06/24 12:00:18;;;;;;;;;;;21.60;66.90;;;;;;5054421;28;1978;-72
2022/06/24 12:02:44;;;;;;;;;;;21.60;66.90;;;;;;5072297;28;1424;-72
2022/06/24 12:05:10;;;;;;;;;;;21.60;66.80;;;;;;5046437;28;2043;-72
2022/06/24 12:07:35;;;;;;;;;;;21.60;66.80;;;;;;5050100;28;1689;-73
2022/06/24 12:10:00;;;;;;;;;;;21.60;66.80;;;;;;5047615;28;1744;-72
2022/06/24 12:12:26;;;;;;;;;;;21.60;66.70;;;;;;5063617;28;1293;-72
2022/06/24 12:14:55;;;;;;;;;;;21.60;66.70;;;;;;5051350;28;1181;-72
2022/06/24 12:17:20;;;;;;;;;;;21.60;66.60;;;;;;5057476;28;816;-73
2022/06/24 12:19:55;;;;;;;;;;;21.60;66.60;;;;;;5053231;28;1907;-72
2022/06/24 12:22:21;;;;;;;;;;;21.60;66.50;;;;;;5072227;28;1005;-73
2022/06/24 12:24:46;;;;;;;;;;;21.60;66.50;;;;;;5075499;28;1657;-72
2022/06/24 12:27:13;;;;;;;;;;;21.60;66.50;;;;;;5075863;28;1707;-72
2022/06/24 12:29:39;;;;;;;;;;;21.60;67.40;;;;;;5058177;28;914;-72
2022/06/24 12:32:05;;;;;;;;;;;21.60;66.50;;;;;;5057888;28;1250;-72
2022/06/24 12:34:31;;;;;;;;;;;21.60;66.50;;;;;;5051069;28;2235;-72
2022/06/24 12:37:06;;;;;;;;;;;21.60;66.60;;;;;;5074358;28;1192;-71
2022/06/24 12:39:33;;;;;;;;;;;21.60;66.60;;;;;;5047121;28;1956;-72
2022/06/24 12:41:59;;;;;;;;;;;21.60;66.50;;;;;;5046713;28;1453;-71
2022/06/24 12:44:27;;;;;;;;;;;21.60;66.40;;;;;;5038933;28;1579;-71
2022/06/24 12:52:51;;;;;;;;;;;21.60;66.40;;;;;;5051893;28;1405;-72
2022/06/24 12:55:17;;;;;;;;;;;21.60;66.50;;;;;;5068834;28;1412;-71
2022/06/24 12:57:42;;;;;;;;;;;21.60;66.50;;;;;;5074667;28;1514;-71
2022/06/24 13:00:09;;;;;;;;;;;21.60;66.30;;;;;;5057226;28;1902;-72
2022/06/24 13:02:35;;;;;;;;;;;21.60;66.30;;;;;;5075245;28;1421;-72
2022/06/24 13:05:00;;;;;;;;;;;21.60;66.30;;;;;;5057056;28;1278;-71
2022/06/24 13:07:26;;;;;;;;;;;21.60;66.30;;;;;;5075019;28;1357;-71
2022/06/24 13:09:51;;;;;;;;;;;21.60;66.20;;;;;;5075104;28;1776;-72
2022/06/24 13:12:17;;;;;;;;;;;21.60;66.20;;;;;;5056847;28;1372;-71
2022/06/24 13:14:42;;;;;;;;;;;21.60;66.20;;;;;;5056704;28;1503;-71
2022/06/24 13:17:07;;;;;;;;;;;21.60;66.30;;;;;;5056851;28;1799;-71
2022/06/24 13:19:33;;;;;;;;;;;21.60;66.20;;;;;;5050954;28;1955;-71
2022/06/24 13:22:00;;;;;;;;;;;21.60;66.10;;;;;;5056806;28;1686;-72
2022/06/24 13:24:26;;;;;;;;;;;21.60;66.10;;;;;;5074220;28;1587;-72
2022/06/24 13:26:52;;;;;;;;;;;21.60;66.10;;;;;;5055668;28;1861;-72
2022/06/24 13:29:17;;;;;;;;;;;21.60;66.10;;;;;;5064700;28;1267;-72
2022/06/24 13:31:43;;;;;;;;;;;21.60;66.10;;;;;;5040863;28;1271;-72
2022/06/24 13:34:08;;;;;;;;;;;21.60;66.00;;;;;;5072259;28;1399;-71
2022/06/24 13:36:33;;;;;;;;;;;21.60;66.10;;;;;;5067435;28;1162;-72
2022/06/24 13:38:59;;;;;;;;;;;21.60;66.00;;;;;;5074261;28;1978;-72
2022/06/24 13:41:24;;;;;;;;;;;21.60;66.40;;;;;;5071406;28;1102;-73
2022/06/24 13:43:50;;;;;;;;;;;21.60;66.70;;;;;;5060648;28;1209;-73
2022/06/24 13:46:15;;;;;;;;;;;21.60;66.80;;;;;;5058936;28;1155;-72
2022/06/24 13:48:41;;;;;;;;;;;21.60;66.90;;;;;;5072681;28;1299;-72
2022/06/24 13:51:06;;;;;;;;;;;21.60;67.00;;;;;;5074101;28;1257;-72
2022/06/24 13:53:33;;;;;;;;;;;21.60;66.70;;;;;;5068735;28;1130;-72
2022/06/24 13:55:58;;;;;;;;;;;21.60;66.90;;;;;;5065333;28;1299;-73
2022/06/24 13:58:24;;;;;;;;;;;21.60;67.00;;;;;;5056011;28;1206;-73
2022/06/24 14:00:49;;;;;;;;;;;21.60;67.00;;;;;;5055942;28;1910;-73
2022/06/24 14:03:14;;;;;;;;;;;21.60;67.00;;;;;;5073757;28;1347;-72
2022/06/24 14:05:40;;;;;;;;;;;21.60;67.00;;;;;;5055625;28;1193;-73
2022/06/24 14:08:05;;;;;;;;;;;21.60;66.70;;;;;;5073649;28;1444;-73
2022/06/24 14:10:31;;;;;;;;;;;21.60;66.90;;;;;;5073461;28;1302;-72
2022/06/24 14:12:56;;;;;;;;;;;21.60;67.00;;;;;;5055833;28;1329;-72
2022/06/24 14:15:22;;;;;;;;;;;21.60;66.90;;;;;;5061256;28;1235;-72
2022/06/24 14:17:47;;;;;;;;;;;21.60;66.80;;;;;;5072143;28;1267;-72
2022/06/24 14:20:13;;;;;;;;;;;21.60;66.80;;;;;;5049930;28;1894;-73
2022/06/24 14:24:31;;;;;;;;;;;21.60;66.80;;;;;;5073368;28;1182;-73
2022/06/24 14:25:24;;;;;;;;;;;21.60;66.70;;;;;;5058004;28;1743;-74
2022/06/24 14:27:50;;;;;;;;;;;21.60;66.90;;;;;;5073243;28;1085;-72
2022/06/24 14:30:15;;;;;;;;;;;21.60;67.20;;;;;;5055572;28;1076;-73
2022/06/24 14:32:41;;;;;;;;;;;21.60;67.60;;;;;;5073313;28;1407;-72
2022/06/24 14:35:06;;;;;;;;;;;21.70;67.70;;;;;;5072941;28;1261;-73
2022/06/24 14:40:16;;;;;;;;;;;21.60;67.50;;;;;;5069044;28;1898;-71
2022/06/24 14:42:41;;;;;;;;;;;21.70;67.60;;;;;;5067597;28;1112;-72
2022/06/24 14:45:07;;;;;;;;;;;21.70;67.90;;;;;;5068756;28;1395;-72
2022/06/24 14:47:32;;;;;;;;;;;21.70;68.40;;;;;;5073171;28;1398;-73
2022/06/24 14:49:58;;;;;;;;;;;21.70;68.60;;;;;;5055070;28;1313;-73